Strona główna
METAR-TAF:

METAR-TAF

Lotnisko :

William H. Morse State Airport

Bennington, Vermont, Stany Zjednoczone

Szerokość geograficzna: 42-53-24N, Długość geograficzna: 073-14-47W, wysokość: 252 m

Aktualna obserwacja pogody

Raport powstał 51 minut temu, godzina 01:54 UTC
Cisza
Temperatura 19°C
Wilgotność 73%
Ciśnienie 1004 hPa
Widzialność: 16.1 km
Przerywane chmury na wysokości 3900 ft
Przerywane chmury na wysokości 4700 ft

METAR: KDDH 040154Z AUTO 00000KT 10SM BKN039 BKN047 19/14 A2966 RMK AO2 SLP042 T01890139

czas: 22:45 (02:45 UTC)


TAF: brakujący

Obserwacja i prognoza pogody dla ponad 4000 lotnisk (raport METAR i TAF).

Dostępne stacje oznaczono żółtymi i czerwonymi punktami na mapie.

Najedź kursorem aby zobaczyć nazwę stacji.

Kliknij aby zobaczyć obserwacje i prognozy pogody.

Aby zmienić mapę: kliknij na zielony przycisk z czarnym krzyżykiem, aby powiększyć; na zielony przycisk z myślnikiem, aby pomniejszyć; na zielone strzałki, aby przejść do map sąsiednich.


METAR-TAF: